Time;durP1;ratioP1;P1;durP2;ratioP2;P2;SDS_P1;SDS_P2;PMS_P1;PMS_P2;Temp;Humidity;BMP_temperature;BMP_pressure;BME280_temperature;BME280_humidity;BME280_pressure;Samples;Min_cycle;Max_cycle;Signal;HPM_P1;HPM_P2
2021/07/28 00:00:47;;;;;;;9.82;5.53;;;;;;;;;;5031507;28;20108;-64
2021/07/28 00:03:12;;;;;;;13.68;5.78;;;;;;;;;;5035595;28;20025;-64
2021/07/28 00:05:38;;;;;;;11.05;5.97;;;;;;;;;;5031514;28;20788;-67
2021/07/28 00:08:03;;;;;;;11.50;5.75;;;;;;;;;;5031404;28;20086;-66
2021/07/28 00:10:29;;;;;;;10.63;5.60;;;;;;;;;;5032704;28;20017;-65
2021/07/28 00:12:54;;;;;;;8.43;6.00;;;;;;;;;;5031642;28;20025;-65
2021/07/28 00:15:20;;;;;;;10.00;5.70;;;;;;;;;;5031310;28;20033;-66
2021/07/28 00:17:51;;;;;;;7.32;5.70;;;;;;;;;;5032050;28;20029;-67
2021/07/28 00:23:12;;;;;;;10.88;6.28;;;;;;;;;;5032620;28;20099;-67
2021/07/28 00:23:14;;;;;;;12.98;6.50;;;;;;;;;;5031302;28;20061;-64
2021/07/28 00:25:41;;;;;;;11.93;5.85;;;;;;;;;;5028723;28;20022;-64
2021/07/28 00:28:07;;;;;;;9.18;5.85;;;;;;;;;;5032025;28;20064;-67
2021/07/28 00:30:33;;;;;;;8.13;5.88;;;;;;;;;;5032423;28;20116;-65
2021/07/28 00:32:58;;;;;;;8.10;5.68;;;;;;;;;;5031292;28;20062;-63
2021/07/28 00:35:24;;;;;;;8.48;5.55;;;;;;;;;;5036410;28;20071;-65
2021/07/28 00:37:50;;;;;;;7.57;6.03;;;;;;;;;;5032102;28;20405;-66
2021/07/28 00:40:18;;;;;;;14.02;6.03;;;;;;;;;;5032026;28;20029;-66
2021/07/28 00:42:43;;;;;;;10.48;6.00;;;;;;;;;;5032312;28;20040;-62
2021/07/28 00:45:09;;;;;;;10.35;5.38;;;;;;;;;;5030480;28;20026;-63
2021/07/28 00:47:35;;;;;;;7.75;5.60;;;;;;;;;;5028878;28;20036;-63
2021/07/28 00:50:04;;;;;;;6.13;5.40;;;;;;;;;;5030644;28;20033;-62
2021/07/28 00:52:32;;;;;;;10.25;5.50;;;;;;;;;;5033176;28;20108;-64
2021/07/28 00:54:57;;;;;;;9.13;5.60;;;;;;;;;;5038105;28;20021;-63
2021/07/28 00:57:23;;;;;;;10.07;5.75;;;;;;;;;;5038161;28;20037;-65
2021/07/28 00:59:48;;;;;;;10.57;5.60;;;;;;;;;;5031508;28;20033;-65
2021/07/28 01:02:14;;;;;;;11.30;5.53;;;;;;;;;;5031185;28;20386;-63
2021/07/28 01:04:39;;;;;;;10.00;6.03;;;;;;;;;;5030165;28;20036;-62
2021/07/28 01:07:05;;;;;;;10.10;5.88;;;;;;;;;;5031891;28;20037;-64
2021/07/28 01:09:30;;;;;;;7.40;5.90;;;;;;;;;;5030013;28;20021;-66
2021/07/28 01:11:58;;;;;;;7.65;6.25;;;;;;;;;;5031096;28;20022;-65
2021/07/28 01:14:23;;;;;;;8.65;5.95;;;;;;;;;;5030469;28;20101;-65
2021/07/28 01:16:51;;;;;;;9.80;6.00;;;;;;;;;;5030685;28;20451;-65
2021/07/28 01:19:19;;;;;;;7.72;5.63;;;;;;;;;;5032844;28;20029;-65
2021/07/28 01:21:45;;;;;;;10.75;6.18;;;;;;;;;;5031546;28;20025;-63
2021/07/28 01:24:15;;;;;;;13.25;5.93;;;;;;;;;;5029960;28;20040;-63
2021/07/28 01:26:41;;;;;;;11.65;5.80;;;;;;;;;;5030827;28;20087;-63
2021/07/28 01:29:06;;;;;;;8.03;5.73;;;;;;;;;;5031077;28;20699;-64
2021/07/28 01:31:41;;;;;;;10.30;6.28;;;;;;;;;;5030807;28;20035;-64
2021/07/28 01:34:08;;;;;;;11.07;6.20;;;;;;;;;;5030243;28;20057;-63
2021/07/28 01:36:34;;;;;;;9.35;5.65;;;;;;;;;;5029641;28;20132;-64
2021/07/28 01:39:01;;;;;;;9.05;6.03;;;;;;;;;;5027291;28;20029;-64
2021/07/28 01:41:27;;;;;;;9.70;6.20;;;;;;;;;;5022902;28;20060;-64
2021/07/28 01:43:52;;;;;;;8.60;6.00;;;;;;;;;;5031695;28;20069;-63
2021/07/28 01:46:18;;;;;;;9.70;6.53;;;;;;;;;;5028199;28;20045;-64
2021/07/28 01:48:43;;;;;;;10.90;7.30;;;;;;;;;;5030012;28;20021;-64
2021/07/28 01:51:09;;;;;;;10.70;7.53;;;;;;;;;;5030887;28;20544;-65
2021/07/28 01:53:34;;;;;;;12.07;7.15;;;;;;;;;;5030105;28;20033;-66
2021/07/28 01:56:00;;;;;;;15.55;6.72;;;;;;;;;;5030063;28;20387;-64
2021/07/28 01:58:28;;;;;;;11.45;6.90;;;;;;;;;;5028675;28;20095;-65
2021/07/28 02:00:54;;;;;;;11.80;6.22;;;;;;;;;;5032293;28;20033;-63
2021/07/28 02:03:20;;;;;;;11.90;6.35;;;;;;;;;;5027461;28;20025;-67
2021/07/28 02:05:45;;;;;;;11.68;6.90;;;;;;;;;;5032161;28;20030;-65
2021/07/28 02:08:13;;;;;;;10.18;6.50;;;;;;;;;;5031075;28;20030;-64
2021/07/28 02:10:45;;;;;;;10.82;6.60;;;;;;;;;;5030115;28;20104;-66
2021/07/28 02:13:11;;;;;;;7.43;6.38;;;;;;;;;;5030131;28;20036;-62
2021/07/28 02:15:37;;;;;;;13.27;6.40;;;;;;;;;;5028484;28;20030;-64
2021/07/28 02:18:04;;;;;;;13.27;6.65;;;;;;;;;;5028781;28;20091;-65
2021/07/28 02:20:30;;;;;;;8.20;6.10;;;;;;;;;;5031384;28;20082;-62
2021/07/28 02:22:56;;;;;;;10.80;7.03;;;;;;;;;;5030341;28;20118;-63
2021/07/28 02:25:21;;;;;;;12.18;7.32;;;;;;;;;;5031739;28;20435;-65
2021/07/28 02:27:47;;;;;;;10.57;7.57;;;;;;;;;;5040216;28;20037;-64
2021/07/28 02:30:16;;;;;;;10.27;6.80;;;;;;;;;;5029175;28;20029;-65
2021/07/28 02:32:41;;;;;;;9.75;6.95;;;;;;;;;;5030949;28;20079;-66
2021/07/28 02:35:08;;;;;;;10.85;7.53;;;;;;;;;;5029341;28;20041;-63
2021/07/28 02:37:34;;;;;;;10.48;7.53;;;;;;;;;;5029830;28;20482;-63
2021/07/28 02:40:00;;;;;;;10.02;7.20;;;;;;;;;;5028186;28;20029;-63
2021/07/28 02:42:25;;;;;;;10.52;7.35;;;;;;;;;;5031420;28;20391;-63
2021/07/28 02:44:51;;;;;;;13.57;7.07;;;;;;;;;;5030179;28;20029;-66
2021/07/28 02:47:17;;;;;;;10.52;7.35;;;;;;;;;;5029090;28;20037;-63
2021/07/28 02:49:42;;;;;;;11.40;7.22;;;;;;;;;;5032469;28;20034;-63
2021/07/28 02:52:07;;;;;;;12.20;7.13;;;;;;;;;;5034049;28;20048;-63
2021/07/28 02:54:33;;;;;;;10.90;6.95;;;;;;;;;;5034328;28;20116;-63
2021/07/28 02:56:58;;;;;;;9.10;6.68;;;;;;;;;;5037091;28;20111;-66
2021/07/28 02:59:24;;;;;;;9.60;6.30;;;;;;;;;;5052553;28;20036;-64
2021/07/28 03:01:50;;;;;;;11.95;6.95;;;;;;;;;;5034971;28;20033;-63
2021/07/28 03:04:16;;;;;;;9.38;6.82;;;;;;;;;;5033569;28;20076;-64
2021/07/28 03:06:41;;;;;;;10.00;6.75;;;;;;;;;;5032616;28;20045;-65
2021/07/28 03:09:07;;;;;;;12.35;7.38;;;;;;;;;;5033395;28;20046;-64
2021/07/28 03:11:32;;;;;;;9.32;7.47;;;;;;;;;;5034801;28;20101;-63
2021/07/28 03:13:58;;;;;;;12.63;7.47;;;;;;;;;;5032190;28;20486;-64
2021/07/28 03:16:24;;;;;;;9.63;7.10;;;;;;;;;;5032274;28;20029;-66
2021/07/28 03:18:50;;;;;;;11.38;7.35;;;;;;;;;;5033074;28;20029;-64
2021/07/28 03:21:15;;;;;;;10.32;7.13;;;;;;;;;;5034072;28;20030;-67
2021/07/28 03:23:40;;;;;;;12.13;7.85;;;;;;;;;;5037242;28;20121;-64
2021/07/28 03:26:06;;;;;;;11.90;7.60;;;;;;;;;;5032405;28;20490;-65
2021/07/28 03:28:32;;;;;;;11.35;7.40;;;;;;;;;;5030214;28;20025;-65
2021/07/28 03:30:57;;;;;;;11.00;8.00;;;;;;;;;;5031360;28;20057;-64
2021/07/28 03:33:22;;;;;;;11.35;6.90;;;;;;;;;;5032363;28;20100;-65
2021/07/28 03:35:48;;;;;;;10.77;7.32;;;;;;;;;;5031265;28;20029;-65
2021/07/28 03:38:14;;;;;;;10.55;7.95;;;;;;;;;;5030656;28;20116;-62
2021/07/28 03:40:39;;;;;;;9.68;7.55;;;;;;;;;;5031465;28;20029;-64
2021/07/28 03:43:05;;;;;;;10.90;7.32;;;;;;;;;;5032646;28;20033;-64
2021/07/28 03:45:31;;;;;;;9.32;7.03;;;;;;;;;;5032526;28;20033;-65
2021/07/28 03:47:56;;;;;;;11.23;7.57;;;;;;;;;;5032168;28;20052;-63
2021/07/28 03:50:21;;;;;;;9.93;7.18;;;;;;;;;;5030549;28;20443;-64
2021/07/28 03:52:47;;;;;;;10.85;7.40;;;;;;;;;;5033676;28;20033;-64
2021/07/28 03:55:12;;;;;;;10.48;7.70;;;;;;;;;;5034125;28;20426;-64
2021/07/28 03:57:37;;;;;;;11.63;8.00;;;;;;;;;;5033371;28;20489;-65
2021/07/28 04:00:04;;;;;;;9.70;7.78;;;;;;;;;;5029417;28;20052;-64
2021/07/28 04:02:30;;;;;;;15.00;7.85;;;;;;;;;;5032611;28;20029;-62
2021/07/28 04:04:55;;;;;;;12.68;8.38;;;;;;;;;;5031641;28;20048;-66
2021/07/28 04:07:21;;;;;;;13.93;8.43;;;;;;;;;;5034954;28;20025;-64
2021/07/28 04:09:46;;;;;;;11.70;8.45;;;;;;;;;;5032621;28;20091;-62
2021/07/28 04:12:12;;;;;;;10.32;8.18;;;;;;;;;;5032762;28;20018;-62
2021/07/28 04:14:37;;;;;;;9.77;8.00;;;;;;;;;;5032284;28;20471;-64
2021/07/28 04:17:02;;;;;;;10.57;8.20;;;;;;;;;;5034047;28;21749;-65
2021/07/28 04:19:30;;;;;;;11.65;8.02;;;;;;;;;;5024738;28;20493;-64
2021/07/28 04:21:55;;;;;;;12.45;8.05;;;;;;;;;;5029239;28;20033;-63
2021/07/28 04:24:28;;;;;;;10.07;7.70;;;;;;;;;;4569808;28;10002871;-63
2021/07/28 04:26:53;;;;;;;11.75;8.05;;;;;;;;;;5021359;28;20283;-63
2021/07/28 04:29:18;;;;;;;11.50;8.43;;;;;;;;;;5026009;28;20056;-65
2021/07/28 04:31:44;;;;;;;10.85;8.30;;;;;;;;;;5024043;28;20506;-64
2021/07/28 04:34:09;;;;;;;17.92;8.40;;;;;;;;;;5024782;28;20037;-64
2021/07/28 04:36:35;;;;;;;12.68;8.57;;;;;;;;;;5023145;28;20244;-65
2021/07/28 04:39:01;;;;;;;11.63;7.72;;;;;;;;;;5024657;28;20029;-63
2021/07/28 04:41:26;;;;;;;12.15;8.25;;;;;;;;;;5026905;28;20611;-64
2021/07/28 04:43:52;;;;;;;14.57;8.90;;;;;;;;;;5026388;28;20029;-65
2021/07/28 04:46:18;;;;;;;18.30;8.95;;;;;;;;;;5025512;28;20026;-65
2021/07/28 04:48:43;;;;;;;10.70;8.18;;;;;;;;;;5025893;28;20034;-65
2021/07/28 04:51:08;;;;;;;10.40;8.18;;;;;;;;;;5026046;28;20033;-65
2021/07/28 04:53:34;;;;;;;10.30;8.18;;;;;;;;;;5027338;28;20025;-66
2021/07/28 04:55:59;;;;;;;11.60;8.38;;;;;;;;;;5025851;28;20449;-63
2021/07/28 04:58:25;;;;;;;13.75;8.00;;;;;;;;;;5024295;28;20082;-66
2021/07/28 05:00:51;;;;;;;10.30;8.30;;;;;;;;;;5024422;28;20031;-65
2021/07/28 05:03:17;;;;;;;10.88;7.78;;;;;;;;;;5026669;28;20028;-64
2021/07/28 05:05:43;;;;;;;10.60;7.47;;;;;;;;;;5021399;28;20029;-64
2021/07/28 05:08:09;;;;;;;11.23;8.27;;;;;;;;;;5023402;28;20089;-64
2021/07/28 05:10:34;;;;;;;10.52;8.23;;;;;;;;;;5027110;28;20076;-62
2021/07/28 05:13:00;;;;;;;11.43;8.10;;;;;;;;;;5025141;28;20021;-63
2021/07/28 05:15:26;;;;;;;10.30;7.65;;;;;;;;;;5022731;28;20037;-64
2021/07/28 05:17:51;;;;;;;8.98;7.68;;;;;;;;;;5023114;28;20025;-64
2021/07/28 05:20:17;;;;;;;8.60;7.55;;;;;;;;;;5025781;28;20026;-63
2021/07/28 05:22:43;;;;;;;11.18;8.07;;;;;;;;;;5025776;28;20029;-64
2021/07/28 05:25:09;;;;;;;12.13;7.75;;;;;;;;;;5026338;28;20033;-63
2021/07/28 05:27:34;;;;;;;13.90;7.72;;;;;;;;;;5022385;28;20029;-64
2021/07/28 05:30:00;;;;;;;8.65;7.75;;;;;;;;;;5025324;28;20087;-64
2021/07/28 05:32:26;;;;;;;11.80;7.82;;;;;;;;;;5022069;28;20013;-65
2021/07/28 05:34:52;;;;;;;10.82;7.68;;;;;;;;;;5022753;28;20102;-66
2021/07/28 05:37:18;;;;;;;11.52;8.00;;;;;;;;;;5022172;28;20490;-65
2021/07/28 05:39:44;;;;;;;11.68;8.90;;;;;;;;;;5022574;28;20049;-66
2021/07/28 05:42:10;;;;;;;14.80;8.30;;;;;;;;;;5025049;28;20037;-65
2021/07/28 05:44:35;;;;;;;12.40;8.75;;;;;;;;;;5021768;28;20031;-64
2021/07/28 05:47:01;;;;;;;12.25;8.75;;;;;;;;;;5023631;28;20041;-66
2021/07/28 05:49:26;;;;;;;10.93;8.88;;;;;;;;;;5020358;28;20036;-64
2021/07/28 05:51:52;;;;;;;14.35;9.10;;;;;;;;;;5025368;28;20025;-67
2021/07/28 05:54:17;;;;;;;11.63;8.73;;;;;;;;;;5026425;28;20115;-66
2021/07/28 05:56:42;;;;;;;11.95;8.70;;;;;;;;;;5028934;28;20026;-66
2021/07/28 05:59:08;;;;;;;11.32;8.88;;;;;;;;;;5030538;28;20148;-65
2021/07/28 06:01:33;;;;;;;12.35;9.45;;;;;;;;;;5031998;28;20029;-64
2021/07/28 06:03:59;;;;;;;12.40;9.15;;;;;;;;;;5028001;28;20116;-66
2021/07/28 06:06:26;;;;;;;12.57;9.15;;;;;;;;;;5027954;28;20029;-64
2021/07/28 06:08:52;;;;;;;;;;;;;;;;;;5029922;28;20049;-64
2021/07/28 06:11:17;;;;;;;10.97;8.20;;;;;;;;;;5031051;28;20441;-62
2021/07/28 06:13:43;;;;;;;11.73;8.90;;;;;;;;;;5030933;28;20560;-63
2021/07/28 06:16:08;;;;;;;12.73;9.20;;;;;;;;;;5029146;28;20021;-65
2021/07/28 06:18:34;;;;;;;14.82;9.10;;;;;;;;;;5027804;28;20395;-63
2021/07/28 06:21:00;;;;;;;12.88;9.30;;;;;;;;;;5029748;28;20065;-66
2021/07/28 06:23:26;;;;;;;13.25;9.02;;;;;;;;;;5029221;28;20037;-65
2021/07/28 06:25:52;;;;;;;12.10;8.88;;;;;;;;;;5029990;28;20029;-65
2021/07/28 06:28:20;;;;;;;11.63;9.32;;;;;;;;;;5033618;28;20032;-65
2021/07/28 06:30:45;;;;;;;11.57;9.10;;;;;;;;;;5029708;28;20031;-66
2021/07/28 06:33:11;;;;;;;13.23;9.30;;;;;;;;;;5032081;28;20124;-64
2021/07/28 06:35:36;;;;;;;13.30;8.70;;;;;;;;;;5030526;28;20022;-67
2021/07/28 06:38:03;;;;;;;13.00;8.80;;;;;;;;;;5028605;28;21485;-65
2021/07/28 06:40:29;;;;;;;11.00;9.43;;;;;;;;;;5030695;28;20080;-65
2021/07/28 06:42:54;;;;;;;14.48;9.02;;;;;;;;;;5029004;28;20372;-66
2021/07/28 06:45:20;;;;;;;14.30;9.32;;;;;;;;;;5030186;28;20109;-63
2021/07/28 06:47:45;;;;;;;15.45;9.32;;;;;;;;;;5029666;28;20120;-66
2021/07/28 06:50:11;;;;;;;13.65;9.40;;;;;;;;;;5030099;28;20022;-64
2021/07/28 06:52:37;;;;;;;12.43;9.73;;;;;;;;;;5036997;28;20025;-65
2021/07/28 06:55:02;;;;;;;13.43;9.80;;;;;;;;;;5030329;28;20037;-66
2021/07/28 06:57:29;;;;;;;14.02;9.82;;;;;;;;;;5031182;28;20030;-62
2021/07/28 06:59:55;;;;;;;12.43;9.52;;;;;;;;;;5030668;28;20633;-66
2021/07/28 07:02:21;;;;;;;15.63;9.40;;;;;;;;;;5030824;28;20018;-63
2021/07/28 07:04:46;;;;;;;13.80;10.02;;;;;;;;;;5032370;28;20044;-65
2021/07/28 07:07:12;;;;;;;14.80;9.35;;;;;;;;;;5030895;28;20045;-65
2021/07/28 07:09:37;;;;;;;12.00;9.32;;;;;;;;;;5029622;28;20461;-65
2021/07/28 07:12:03;;;;;;;21.85;9.80;;;;;;;;;;5029817;28;20036;-67
2021/07/28 07:14:29;;;;;;;15.68;9.68;;;;;;;;;;5034222;28;20031;-62
2021/07/28 07:16:55;;;;;;;13.18;10.48;;;;;;;;;;5024499;28;20029;-64
2021/07/28 07:19:21;;;;;;;14.80;11.25;;;;;;;;;;5033069;28;20406;-64
2021/07/28 07:21:46;;;;;;;14.85;10.02;;;;;;;;;;5030700;28;20029;-65
2021/07/28 07:24:11;;;;;;;18.85;11.25;;;;;;;;;;5034010;28;20034;-64
2021/07/28 07:26:36;;;;;;;13.90;10.70;;;;;;;;;;5031592;28;20140;-63
2021/07/28 07:29:02;;;;;;;13.68;10.75;;;;;;;;;;5027674;28;20036;-65
2021/07/28 07:31:27;;;;;;;12.77;10.05;;;;;;;;;;5032687;28;20060;-63
2021/07/28 07:33:52;;;;;;;12.60;10.98;;;;;;;;;;5024570;28;20057;-62
2021/07/28 07:36:19;;;;;;;13.75;10.70;;;;;;;;;;5000405;28;20041;-64
2021/07/28 07:38:45;;;;;;;14.17;9.67;;;;;;;;;;5016429;28;20583;-62
2021/07/28 07:41:10;;;;;;;18.83;10.60;;;;;;;;;;5018195;28;20042;-64
2021/07/28 07:43:38;;;;;;;14.43;10.13;;;;;;;;;;4996614;28;20041;-63
2021/07/28 07:46:04;;;;;;;14.30;10.73;;;;;;;;;;5014009;28;20041;-64
2021/07/28 07:48:30;;;;;;;13.07;10.38;;;;;;;;;;5010324;28;20072;-65
2021/07/28 07:50:55;;;;;;;13.80;10.70;;;;;;;;;;4330232;28;10000329;-63
2021/07/28 07:53:21;;;;;;;15.15;11.15;;;;;;;;;;5011478;28;20029;-66
2021/07/28 07:55:46;;;;;;;16.38;11.30;;;;;;;;;;5010694;28;20096;-65
2021/07/28 07:58:11;;;;;;;15.68;11.07;;;;;;;;;;5011140;28;20030;-63
2021/07/28 08:00:37;;;;;;;17.38;10.90;;;;;;;;;;5016207;28;20026;-66
2021/07/28 08:03:03;;;;;;;16.00;10.60;;;;;;;;;;5015546;28;20038;-64
2021/07/28 08:05:28;;;;;;;14.98;10.52;;;;;;;;;;5013512;28;20045;-63
2021/07/28 08:07:53;;;;;;;12.38;10.10;;;;;;;;;;5014738;28;20033;-64
2021/07/28 08:10:19;;;;;;;15.25;10.40;;;;;;;;;;5013517;28;20029;-66
2021/07/28 08:12:44;;;;;;;17.02;11.18;;;;;;;;;;5016681;28;20029;-63
2021/07/28 08:15:10;;;;;;;16.67;10.77;;;;;;;;;;5009809;28;20053;-66
2021/07/28 08:17:35;;;;;;;14.30;10.07;;;;;;;;;;5017127;28;20066;-64
2021/07/28 08:20:01;;;;;;;16.67;10.68;;;;;;;;;;5011318;28;21477;-68
2021/07/28 08:22:28;;;;;;;14.10;10.32;;;;;;;;;;5011543;28;20053;-66
2021/07/28 08:24:53;;;;;;;14.88;10.70;;;;;;;;;;5015885;28;20045;-67
2021/07/28 08:27:18;;;;;;;12.13;10.82;;;;;;;;;;5006983;28;20030;-67
2021/07/28 08:29:44;;;;;;;13.65;10.73;;;;;;;;;;4996702;28;20109;-67
2021/07/28 08:32:09;;;;;;;12.05;8.45;;;;;;;;;;4996398;28;20402;-68
2021/07/28 08:34:34;;;;;;;14.43;10.60;;;;;;;;;;5024914;28;20074;-65
2021/07/28 08:37:00;;;;;;;12.88;8.02;;;;;;;;;;5027870;28;20539;-66
2021/07/28 08:39:26;;;;;;;9.18;7.28;;;;;;;;;;5026814;28;20108;-69
2021/07/28 08:41:53;;;;;;;9.20;6.72;;;;;;;;;;5030526;28;20066;-67
2021/07/28 08:44:20;;;;;;;8.60;7.00;;;;;;;;;;5031102;28;20017;-68
2021/07/28 08:46:45;;;;;;;8.05;6.90;;;;;;;;;;5029838;28;20092;-63
2021/07/28 08:49:14;;;;;;;9.63;7.72;;;;;;;;;;5031005;28;20037;-65
2021/07/28 08:51:42;;;;;;;10.18;7.50;;;;;;;;;;5013232;28;20386;-67
2021/07/28 08:54:08;;;;;;;10.98;7.07;;;;;;;;;;5032114;28;20116;-68
2021/07/28 08:56:38;;;;;;;12.15;6.93;;;;;;;;;;5044280;28;20111;-67
2021/07/28 08:59:04;;;;;;;9.75;6.30;;;;;;;;;;5028055;28;20663;-65
2021/07/28 09:01:29;;;;;;;8.50;6.78;;;;;;;;;;5030108;28;20032;-64
2021/07/28 09:03:54;;;;;;;8.20;6.63;;;;;;;;;;5029255;28;20031;-68
2021/07/28 09:06:27;;;;;;;10.20;6.57;;;;;;;;;;5009773;28;20116;-65
2021/07/28 09:08:58;;;;;;;9.88;6.10;;;;;;;;;;5028700;28;20080;-66
2021/07/28 09:11:23;;;;;;;8.13;6.53;;;;;;;;;;5028123;28;20037;-67
2021/07/28 09:13:48;;;;;;;8.85;6.15;;;;;;;;;;5028206;28;20033;-67
2021/07/28 09:16:17;;;;;;;6.78;5.43;;;;;;;;;;5023982;28;20030;-65
2021/07/28 09:18:46;;;;;;;7.00;5.60;;;;;;;;;;5018664;28;20029;-65
2021/07/28 09:21:21;;;;;;;7.72;5.97;;;;;;;;;;5031729;28;20040;-66
2021/07/28 09:24:01;;;;;;;9.38;5.97;;;;;;;;;;5026537;28;20045;-65
2021/07/28 09:26:28;;;;;;;10.73;6.22;;;;;;;;;;5028392;28;20025;-64
2021/07/28 09:29:32;;;;;;;6.82;5.43;;;;;;;;;;5023598;28;20033;-64
2021/07/28 09:32:06;;;;;;;7.75;5.65;;;;;;;;;;5011103;28;20033;-65
2021/07/28 09:34:35;;;;;;;8.65;5.75;;;;;;;;;;5026391;28;20529;-64
2021/07/28 09:37:10;;;;;;;7.32;5.50;;;;;;;;;;5029294;28;20025;-64
2021/07/28 09:39:35;;;;;;;7.95;5.20;;;;;;;;;;5025180;28;20040;-63
2021/07/28 09:42:10;;;;;;;8.10;4.90;;;;;;;;;;5031020;28;20045;-67
2021/07/28 09:44:39;;;;;;;6.20;5.15;;;;;;;;;;5030309;28;20698;-64
2021/07/28 09:47:06;;;;;;;8.85;4.95;;;;;;;;;;5025476;28;20040;-67
2021/07/28 09:49:32;;;;;;;7.40;5.03;;;;;;;;;;5026969;28;20036;-64
2021/07/28 09:51:57;;;;;;;6.38;4.82;;;;;;;;;;5028690;28;20030;-65
2021/07/28 09:54:27;;;;;;;8.93;4.97;;;;;;;;;;5027017;28;20698;-63
2021/07/28 09:56:58;;;;;;;8.27;4.30;;;;;;;;;;5024104;28;20112;-64
2021/07/28 09:59:23;;;;;;;5.82;4.53;;;;;;;;;;5024832;28;20057;-67
2021/07/28 10:01:49;;;;;;;5.88;4.63;;;;;;;;;;5025343;28;20037;-63
2021/07/28 10:04:16;;;;;;;5.93;4.30;;;;;;;;;;5006775;28;20567;-66
2021/07/28 10:06:44;;;;;;;5.45;4.07;;;;;;;;;;5025229;28;20033;-66
2021/07/28 10:09:17;;;;;;;7.30;3.80;;;;;;;;;;5024573;28;20033;-67
2021/07/28 10:11:47;;;;;;;6.65;4.30;;;;;;;;;;5026235;28;20017;-67
2021/07/28 10:14:20;;;;;;;6.65;4.30;;;;;;;;;;5011130;28;20021;-67
2021/07/28 10:16:51;;;;;;;5.30;3.85;;;;;;;;;;5005912;28;20022;-65
2021/07/28 10:19:16;;;;;;;5.68;4.13;;;;;;;;;;5018675;28;20075;-64
2021/07/28 10:21:42;;;;;;;6.95;4.13;;;;;;;;;;5028862;28;20033;-64
2021/07/28 10:24:09;;;;;;;4.82;3.70;;;;;;;;;;5026900;28;20021;-64
2021/07/28 10:26:39;;;;;;;;;;;;;;;;;;5021811;28;20021;-64
2021/07/28 10:29:05;;;;;;;6.85;4.20;;;;;;;;;;5029880;28;20270;-62
2021/07/28 10:31:51;;;;;;;5.20;4.03;;;;;;;;;;5037240;28;20119;-64
2021/07/28 10:34:46;;;;;;;5.90;3.85;;;;;;;;;;5026291;28;20060;-63
2021/07/28 10:37:11;;;;;;;5.80;4.22;;;;;;;;;;5028329;28;20037;-65
2021/07/28 10:39:42;;;;;;;6.97;4.20;;;;;;;;;;5029530;28;20033;-68
2021/07/28 10:42:13;;;;;;;6.10;3.90;;;;;;;;;;5021263;28;20495;-67
2021/07/28 10:45:02;;;;;;;5.15;3.85;;;;;;;;;;5003528;28;20065;-64
2021/07/28 10:47:41;;;;;;;4.15;3.67;;;;;;;;;;5020026;28;20083;-69
2021/07/28 10:50:40;;;;;;;6.47;3.55;;;;;;;;;;5026766;28;20064;-65
2021/07/28 10:53:06;;;;;;;5.68;3.90;;;;;;;;;;5019150;28;20157;-66
2021/07/28 10:55:32;;;;;;;5.85;3.60;;;;;;;;;;5027133;28;20129;-66
2021/07/28 10:58:07;;;;;;;4.28;3.35;;;;;;;;;;5025786;28;20045;-64
2021/07/28 11:00:38;;;;;;;4.10;3.53;;;;;;;;;;5026108;28;20047;-65
2021/07/28 11:03:06;;;;;;;6.78;3.60;;;;;;;;;;5028216;28;20494;-64
2021/07/28 11:05:34;;;;;;;4.60;3.53;;;;;;;;;;4996473;28;20454;-63
2021/07/28 11:08:03;;;;;;;4.32;3.53;;;;;;;;;;5011584;28;20025;-66
2021/07/28 11:10:29;;;;;;;4.20;3.60;;;;;;;;;;4981578;28;20029;-66
2021/07/28 11:12:55;;;;;;;3.95;3.42;;;;;;;;;;5017401;28;20017;-63
2021/07/28 11:15:20;;;;;;;7.05;3.80;;;;;;;;;;5018854;28;20025;-66
2021/07/28 11:17:51;;;;;;;6.90;3.60;;;;;;;;;;4993423;28;20028;-65
2021/07/28 11:20:38;;;;;;;4.68;3.42;;;;;;;;;;5017613;28;20446;-65
2021/07/28 11:23:26;;;;;;;4.72;3.63;;;;;;;;;;5020261;28;20033;-64
2021/07/28 11:25:53;;;;;;;5.15;3.60;;;;;;;;;;5021457;28;20141;-65
2021/07/28 11:28:22;;;;;;;7.88;3.83;;;;;;;;;;5018148;28;20034;-63
2021/07/28 11:30:56;;;;;;;4.28;3.25;;;;;;;;;;5018283;28;20136;-65
2021/07/28 11:33:22;;;;;;;5.07;3.90;;;;;;;;;;5017503;28;20109;-65
2021/07/28 11:35:51;;;;;;;6.60;3.28;;;;;;;;;;5000719;28;20074;-68
2021/07/28 11:38:20;;;;;;;3.67;2.90;;;;;;;;;;5015348;28;20093;-64
2021/07/28 11:40:48;;;;;;;3.33;2.90;;;;;;;;;;5025108;28;20686;-64
2021/07/28 11:43:26;;;;;;;3.85;2.50;;;;;;;;;;5012465;28;20041;-67
2021/07/28 11:45:53;;;;;;;3.08;2.22;;;;;;;;;;5009839;28;20025;-65
2021/07/28 11:48:38;;;;;;;2.55;2.30;;;;;;;;;;5008334;28;20034;-65
2021/07/28 11:51:06;;;;;;;3.88;2.30;;;;;;;;;;5008156;28;20112;-66
2021/07/28 11:53:33;;;;;;;5.07;2.55;;;;;;;;;;5014566;28;20064;-66
2021/07/28 11:56:09;;;;;;;4.75;2.60;;;;;;;;;;5011286;28;20029;-67
2021/07/28 11:58:40;;;;;;;;;;;;;;;;;;5012553;28;20046;-66
2021/07/28 12:01:18;;;;;;;3.92;2.30;;;;;;;;;;5005181;28;19928;-65
2021/07/28 12:03:52;;;;;;;4.25;2.45;;;;;;;;;;5001925;28;20488;-66
2021/07/28 12:06:39;;;;;;;2.67;2.13;;;;;;;;;;5010585;28;20092;-66
2021/07/28 12:09:14;;;;;;;3.17;2.28;;;;;;;;;;5007902;28;20037;-64
2021/07/28 12:11:53;;;;;;;6.38;2.80;;;;;;;;;;5002258;28;20372;-66
2021/07/28 12:14:41;;;;;;;3.30;2.05;;;;;;;;;;5013393;28;20153;-67
2021/07/28 12:17:21;;;;;;;3.90;2.35;;;;;;;;;;5013518;28;20132;-64
2021/07/28 12:19:57;;;;;;;2.80;2.47;;;;;;;;;;5011478;28;20025;-66
2021/07/28 12:22:34;;;;;;;3.00;2.22;;;;;;;;;;5013189;28;20034;-63
2021/07/28 12:25:23;;;;;;;2.92;2.55;;;;;;;;;;4995424;28;20088;-65
2021/07/28 12:27:58;;;;;;;3.25;2.30;;;;;;;;;;5013255;28;20121;-63
2021/07/28 12:30:34;;;;;;;2.60;2.40;;;;;;;;;;5011637;28;20057;-65
2021/07/28 12:33:05;;;;;;;3.60;2.38;;;;;;;;;;5011889;28;20040;-62
2021/07/28 12:35:41;;;;;;;3.78;2.20;;;;;;;;;;5007717;28;20471;-67
2021/07/28 12:38:14;;;;;;;3.50;2.40;;;;;;;;;;5002118;28;20483;-64
2021/07/28 12:40:49;;;;;;;4.15;2.28;;;;;;;;;;5010832;28;20486;-65
2021/07/28 12:43:14;;;;;;;4.50;2.30;;;;;;;;;;5013360;28;20164;-64
2021/07/28 12:45:41;;;;;;;2.70;2.28;;;;;;;;;;5010918;28;20097;-64
2021/07/28 12:48:08;;;;;;;2.80;2.38;;;;;;;;;;5011708;28;20062;-64
2021/07/28 12:50:35;;;;;;;3.67;2.35;;;;;;;;;;4984631;28;20503;-65
2021/07/28 12:53:02;;;;;;;2.78;2.13;;;;;;;;;;5012581;28;20034;-64
2021/07/28 12:55:27;;;;;;;2.83;2.15;;;;;;;;;;5011567;28;20033;-65
2021/07/28 12:57:53;;;;;;;2.83;2.17;;;;;;;;;;5011641;28;20018;-67
2021/07/28 13:00:18;;;;;;;3.30;2.05;;;;;;;;;;5010895;28;20038;-64
2021/07/28 13:02:44;;;;;;;5.22;2.40;;;;;;;;;;4318068;28;10021575;-64
2021/07/28 13:05:19;;;;;;;3.90;2.33;;;;;;;;;;5005513;28;20223;-66
2021/07/28 13:07:54;;;;;;;8.82;2.47;;;;;;;;;;5008078;28;20108;-63
2021/07/28 13:10:20;;;;;;;3.22;2.33;;;;;;;;;;5008819;28;20065;-66
2021/07/28 13:12:45;;;;;;;4.63;2.38;;;;;;;;;;5010963;28;20105;-64
2021/07/28 13:15:11;;;;;;;6.18;2.50;;;;;;;;;;5016250;28;20032;-65
2021/07/28 13:17:37;;;;;;;5.03;2.33;;;;;;;;;;5010506;28;20519;-65
2021/07/28 13:20:02;;;;;;;3.65;2.20;;;;;;;;;;5014114;28;20032;-65
2021/07/28 13:22:27;;;;;;;4.22;2.63;;;;;;;;;;5014536;28;20014;-66
2021/07/28 13:24:53;;;;;;;2.47;2.17;;;;;;;;;;5013175;28;20028;-68
2021/07/28 13:27:18;;;;;;;3.38;2.50;;;;;;;;;;5012415;28;20631;-66
2021/07/28 13:29:43;;;;;;;2.47;2.20;;;;;;;;;;5014733;28;20041;-67
2021/07/28 13:32:09;;;;;;;2.60;2.40;;;;;;;;;;5005345;28;20029;-66
2021/07/28 13:34:34;;;;;;;6.15;2.20;;;;;;;;;;5007297;28;20049;-66
2021/07/28 13:37:00;;;;;;;3.83;2.13;;;;;;;;;;5013696;28;20639;-66
2021/07/28 13:39:26;;;;;;;3.25;2.20;;;;;;;;;;4992615;28;20017;-66
2021/07/28 13:41:51;;;;;;;2.70;2.20;;;;;;;;;;5007910;28;20044;-64
2021/07/28 13:44:16;;;;;;;4.65;2.05;;;;;;;;;;5014149;28;20414;-68
2021/07/28 13:46:42;;;;;;;2.72;2.20;;;;;;;;;;4997629;28;20037;-68
2021/07/28 13:49:08;;;;;;;2.53;2.10;;;;;;;;;;5008354;28;20548;-69
2021/07/28 13:51:34;;;;;;;3.55;2.28;;;;;;;;;;5006441;28;20081;-65
2021/07/28 13:54:00;;;;;;;6.10;2.50;;;;;;;;;;5013258;28;20648;-65
2021/07/28 13:56:25;;;;;;;4.05;2.40;;;;;;;;;;4994185;28;20065;-66
2021/07/28 13:58:50;;;;;;;3.08;2.17;;;;;;;;;;5011218;28;20853;-65
2021/07/28 14:01:16;;;;;;;3.60;2.13;;;;;;;;;;4994495;28;20032;-63
2021/07/28 14:03:41;;;;;;;3.73;2.33;;;;;;;;;;5013257;28;21592;-66
2021/07/28 14:06:07;;;;;;;2.80;2.15;;;;;;;;;;4996974;28;20041;-64
2021/07/28 14:08:32;;;;;;;2.65;1.75;;;;;;;;;;5010991;28;20037;-66
2021/07/28 14:11:07;;;;;;;3.72;1.88;;;;;;;;;;5006295;28;20034;-65
2021/07/28 14:13:36;;;;;;;2.88;1.77;;;;;;;;;;5008730;28;21495;-66
2021/07/28 14:16:10;;;;;;;3.47;1.80;;;;;;;;;;5006089;28;20026;-64
2021/07/28 14:18:36;;;;;;;2.83;1.90;;;;;;;;;;5016095;28;20029;-65
2021/07/28 14:21:03;;;;;;;2.95;1.90;;;;;;;;;;5008345;28;20544;-66
2021/07/28 14:23:29;;;;;;;3.13;1.73;;;;;;;;;;5013115;28;20065;-64
2021/07/28 14:25:56;;;;;;;3.25;1.73;;;;;;;;;;5004248;28;20122;-66
2021/07/28 14:28:22;;;;;;;3.05;2.05;;;;;;;;;;4992678;28;20052;-67
2021/07/28 14:30:48;;;;;;;2.10;1.60;;;;;;;;;;5013658;28;20113;-67
2021/07/28 14:33:13;;;;;;;4.68;2.05;;;;;;;;;;5010034;28;20049;-66
2021/07/28 14:35:39;;;;;;;5.68;1.90;;;;;;;;;;5004847;28;20553;-67
2021/07/28 14:38:04;;;;;;;4.47;1.98;;;;;;;;;;5008313;28;20026;-65